createdAt,value
2019-05-20T00:00:00.229Z,3.10
2019-05-20T00:02:28.457Z,6.57
2019-05-20T00:04:55.385Z,7.27
2019-05-20T00:07:23.164Z,4.30
2019-05-20T00:09:50.708Z,3.20
2019-05-20T00:12:19.035Z,4.00
2019-05-20T00:14:46.572Z,6.43
2019-05-20T00:17:14.127Z,3.37
2019-05-20T00:19:41.673Z,5.00
2019-05-20T00:22:09.261Z,4.57
2019-05-20T00:24:36.793Z,5.93
2019-05-20T00:27:05.355Z,7.63
2019-05-20T00:29:33.688Z,6.83
2019-05-20T00:32:01.233Z,4.10
2019-05-20T00:34:35.151Z,3.00
2019-05-20T00:36:56.381Z,4.77
2019-05-20T00:39:23.940Z,3.27
2019-05-20T00:41:51.477Z,2.70
2019-05-20T00:44:19.036Z,2.93
2019-05-20T00:46:46.578Z,9.53
2019-05-20T00:49:15.124Z,16.83
2019-05-20T00:51:42.670Z,7.63
2019-05-20T00:54:10.997Z,8.00
2019-05-20T00:56:38.532Z,3.50
2019-05-20T00:59:06.199Z,3.50
2019-05-20T01:01:33.759Z,3.77
2019-05-20T01:04:01.330Z,3.70
2019-05-20T01:06:28.868Z,4.60
2019-05-20T01:08:56.435Z,5.23
2019-05-20T01:11:24.005Z,3.90
2019-05-20T01:13:51.576Z,4.80
2019-05-20T01:16:19.121Z,5.10
2019-05-20T01:18:46.675Z,4.60
2019-05-20T01:21:14.215Z,6.57
2019-05-20T01:23:41.771Z,3.20
2019-05-20T01:26:09.308Z,6.27
2019-05-20T01:28:36.877Z,4.03
2019-05-20T01:31:04.419Z,4.37
2019-05-20T01:33:31.952Z,6.13
2019-05-20T01:35:59.525Z,15.97
2019-05-20T01:38:27.084Z,3.03
2019-05-20T01:40:55.413Z,4.53
2019-05-20T01:43:22.989Z,3.40
2019-05-20T01:45:50.528Z,3.00
2019-05-20T01:48:18.122Z,4.47
2019-05-20T01:50:46.457Z,3.90
2019-05-20T01:53:14.020Z,4.60
2019-05-20T01:55:41.563Z,3.30
2019-05-20T01:58:09.099Z,5.80
2019-05-20T02:00:36.659Z,3.97
2019-05-20T02:03:04.204Z,8.87
2019-05-20T02:05:31.771Z,5.17
2019-05-20T02:07:59.341Z,4.33
2019-05-20T02:10:26.882Z,7.00
2019-05-20T02:12:54.449Z,5.10
2019-05-20T02:15:24.492Z,4.00
2019-05-20T02:17:52.032Z,5.40
2019-05-20T02:20:20.565Z,5.87
2019-05-20T02:22:48.870Z,6.47
2019-05-20T02:25:16.607Z,23.00
2019-05-20T02:27:44.138Z,7.50
2019-05-20T02:30:11.697Z,6.20
2019-05-20T02:32:39.266Z,5.20
2019-05-20T02:35:06.838Z,3.67
2019-05-20T02:37:35.147Z,4.63
2019-05-20T02:40:02.722Z,4.70
2019-05-20T02:42:30.261Z,5.37
2019-05-20T02:44:57.832Z,4.33
2019-05-20T02:47:25.376Z,11.83
2019-05-20T02:49:53.035Z,6.90
2019-05-20T02:52:20.573Z,9.50
2019-05-20T02:54:49.115Z,5.20
2019-05-20T02:57:16.667Z,7.00
2019-05-20T02:59:44.242Z,7.63
2019-05-20T03:02:11.796Z,3.30
2019-05-20T03:04:39.369Z,3.83
2019-05-20T03:07:07.695Z,6.40
2019-05-20T03:09:35.231Z,5.00
2019-05-20T03:12:02.792Z,5.77
2019-05-20T03:14:30.364Z,18.33
2019-05-20T03:16:57.923Z,10.43
2019-05-20T03:19:26.480Z,8.80
2019-05-20T03:21:54.048Z,7.13
2019-05-20T03:24:21.624Z,3.97
2019-05-20T03:26:49.164Z,4.87
2019-05-20T03:29:16.702Z,6.50
2019-05-20T03:31:44.373Z,4.33
2019-05-20T03:34:38.672Z,10.43
2019-05-20T03:36:39.521Z,5.73
2019-05-20T03:39:07.068Z,7.30
2019-05-20T03:41:35.654Z,5.50
2019-05-20T03:44:03.214Z,6.90
2019-05-20T03:46:30.783Z,6.83
2019-05-20T03:48:58.344Z,4.63
2019-05-20T03:51:26.661Z,5.43
2019-05-20T03:53:54.547Z,4.63
2019-05-20T03:56:22.116Z,6.30
2019-05-20T03:58:49.660Z,5.53
2019-05-20T04:01:17.255Z,8.53
2019-05-20T04:03:44.797Z,5.60
2019-05-20T04:06:12.368Z,4.93
2019-05-20T04:08:39.905Z,5.70
2019-05-20T04:11:07.447Z,5.47
2019-05-20T04:13:35.166Z,6.73
2019-05-20T04:16:02.631Z,7.40
2019-05-20T04:18:30.209Z,4.70
2019-05-20T04:20:57.751Z,5.67
2019-05-20T04:23:25.365Z,6.07
2019-05-20T04:25:52.941Z,5.53
2019-05-20T04:28:20.504Z,5.87
2019-05-20T04:30:48.812Z,5.80
2019-05-20T04:33:16.373Z,5.10
2019-05-20T04:35:43.933Z,5.03
2019-05-20T04:38:12.490Z,8.60
2019-05-20T04:40:40.028Z,5.43
2019-05-20T04:43:07.589Z,4.13
2019-05-20T04:45:35.128Z,7.63
2019-05-20T04:48:02.741Z,7.20
2019-05-20T04:50:30.291Z,10.83
2019-05-20T04:52:57.851Z,7.20
2019-05-20T04:55:25.389Z,5.25
2019-05-20T04:57:52.969Z,8.50
2019-05-20T05:03:25.464Z,5.70
2019-05-20T05:05:53.012Z,6.13
2019-05-20T05:08:20.580Z,3.83
2019-05-20T05:10:48.116Z,7.03
2019-05-20T05:13:15.793Z,3.73
2019-05-20T05:15:43.328Z,4.00
2019-05-20T05:18:10.889Z,5.83
2019-05-20T05:20:38.448Z,5.70
2019-05-20T05:23:06.988Z,4.43
2019-05-20T05:25:34.519Z,4.50
2019-05-20T05:28:02.081Z,6.07
2019-05-20T05:30:29.650Z,7.40
2019-05-20T05:32:57.179Z,8.00
2019-05-20T05:35:24.748Z,6.63
2019-05-20T05:37:52.624Z,3.10
2019-05-20T05:40:20.174Z,7.87
2019-05-20T05:42:47.744Z,6.93
2019-05-20T05:45:15.320Z,5.27
2019-05-20T05:47:42.875Z,6.10
2019-05-20T05:50:10.441Z,6.47
2019-05-20T05:52:38.772Z,9.53
2019-05-20T05:55:06.332Z,5.67
2019-05-20T05:57:33.867Z,5.87
2019-05-20T06:00:01.537Z,9.03
2019-05-20T06:02:29.095Z,5.50
2019-05-20T06:04:56.932Z,7.40
2019-05-20T06:07:24.515Z,11.70
2019-05-20T06:09:53.107Z,6.03
2019-05-20T06:12:20.640Z,8.27
2019-05-20T06:14:48.209Z,4.93
2019-05-20T06:17:15.741Z,5.50
2019-05-20T06:19:44.269Z,5.23
2019-05-20T06:22:14.511Z,6.93
2019-05-20T06:24:39.449Z,6.33
2019-05-20T06:27:06.987Z,8.07
2019-05-20T06:29:34.556Z,4.90
2019-05-20T06:32:02.320Z,5.50
2019-05-20T06:34:30.606Z,5.50
2019-05-20T06:37:00.664Z,4.40
2019-05-20T06:39:28.220Z,4.50
2019-05-20T06:41:55.756Z,4.73
2019-05-20T06:44:23.317Z,5.60
2019-05-20T06:46:50.857Z,5.40
2019-05-20T06:49:19.415Z,5.50
2019-05-20T06:51:46.961Z,4.03
2019-05-20T06:54:15.290Z,5.63
2019-05-20T06:56:43.376Z,5.00
2019-05-20T06:59:10.809Z,5.20
2019-05-20T07:01:38.379Z,6.40
2019-05-20T07:04:05.958Z,6.77
2019-05-20T07:06:45.321Z,4.80
2019-05-20T07:09:01.115Z,6.40
2019-05-20T07:11:28.748Z,3.83
2019-05-20T07:13:57.059Z,4.73
2019-05-20T07:16:24.620Z,3.10
2019-05-20T07:18:52.201Z,4.10
2019-05-20T07:21:19.786Z,3.30
2019-05-20T07:23:47.595Z,2.37
2019-05-20T07:26:15.169Z,4.50
2019-05-20T07:28:42.738Z,2.90
2019-05-20T07:31:10.296Z,3.57
2019-05-20T07:33:37.852Z,3.60
2019-05-20T07:36:05.426Z,4.27
2019-05-20T07:38:32.968Z,4.33
2019-05-20T07:41:00.530Z,4.57
2019-05-20T07:43:28.086Z,3.87
2019-05-20T07:45:55.670Z,4.65
2019-05-20T07:48:23.259Z,5.63
2019-05-20T07:50:50.809Z,7.03
2019-05-20T07:53:18.368Z,8.10
2019-05-20T07:55:51.643Z,6.77
2019-05-20T07:58:19.245Z,5.13
2019-05-20T08:00:46.797Z,6.00
2019-05-20T08:03:14.457Z,8.13
2019-05-20T08:05:42.016Z,8.70
2019-05-20T08:08:09.587Z,8.53
2019-05-20T08:10:37.161Z,9.40
2019-05-20T08:13:04.716Z,6.90
2019-05-20T08:15:32.288Z,8.90
2019-05-20T08:17:59.819Z,7.27
2019-05-20T08:20:27.383Z,8.67
2019-05-20T08:22:54.941Z,7.70
2019-05-20T08:25:22.500Z,14.47
2019-05-20T08:27:50.055Z,9.43
2019-05-20T08:30:17.611Z,17.73
2019-05-20T08:32:45.171Z,10.67
2019-05-20T08:35:12.713Z,10.33
2019-05-20T08:37:45.474Z,11.07
2019-05-20T08:40:07.873Z,10.20
2019-05-20T08:42:36.225Z,10.23
2019-05-20T08:45:06.519Z,9.73
2019-05-20T08:47:34.128Z,11.90
2019-05-20T08:50:03.642Z,10.93
2019-05-20T08:52:29.320Z,22.33
2019-05-20T08:54:56.876Z,11.53
2019-05-20T08:57:24.451Z,14.97
2019-05-20T08:59:52.038Z,11.53
2019-05-20T09:02:19.846Z,12.67
2019-05-20T09:04:47.417Z,10.17
2019-05-20T09:07:14.968Z,12.43
2019-05-20T09:09:42.553Z,11.80
2019-05-20T09:12:10.901Z,13.67
2019-05-20T09:14:40.489Z,10.93
2019-05-20T09:17:06.045Z,17.13
2019-05-20T09:19:33.624Z,14.27
2019-05-20T09:22:01.178Z,13.50
2019-05-20T09:24:28.911Z,14.33
2019-05-20T09:26:56.448Z,12.40
2019-05-20T09:29:24.023Z,15.03
2019-05-20T09:31:51.593Z,16.53
2019-05-20T09:34:19.166Z,18.10
2019-05-20T09:36:46.719Z,20.97
2019-05-20T09:39:14.284Z,25.13
2019-05-20T09:41:41.858Z,20.13
2019-05-20T09:44:09.448Z,17.17
2019-05-20T09:46:36.996Z,20.70
2019-05-20T09:49:04.575Z,17.80
2019-05-20T09:51:32.119Z,21.40
2019-05-20T09:53:59.714Z,18.47
2019-05-20T09:56:27.277Z,20.93
2019-05-20T09:58:55.611Z,20.43
2019-05-20T10:01:23.196Z,21.07
2019-05-20T10:03:51.031Z,19.47
2019-05-20T10:06:18.590Z,21.13
2019-05-20T10:08:46.238Z,26.13
2019-05-20T10:11:13.789Z,23.90
2019-05-20T10:13:41.375Z,24.73
2019-05-20T10:16:08.924Z,23.10
2019-05-20T10:18:38.638Z,24.83
2019-05-20T10:21:04.858Z,26.45
2019-05-20T10:23:32.579Z,25.30
2019-05-20T10:26:00.143Z,27.63
2019-05-20T10:28:27.704Z,23.23
2019-05-20T10:30:55.290Z,26.70
2019-05-20T10:33:22.832Z,27.47
2019-05-20T10:35:50.457Z,23.90
2019-05-20T10:38:18.014Z,28.57
2019-05-20T10:40:45.580Z,27.70
2019-05-20T10:43:13.170Z,27.03
2019-05-20T10:45:40.738Z,33.13
2019-05-20T10:48:09.151Z,26.33
2019-05-20T10:50:35.910Z,30.73
2019-05-20T10:53:03.472Z,26.90
2019-05-20T10:55:31.081Z,30.83
2019-05-20T10:57:59.417Z,30.77
2019-05-20T11:00:26.990Z,31.80
2019-05-20T11:02:54.544Z,27.93
2019-05-20T11:05:22.149Z,28.47
2019-05-20T11:07:50.498Z,28.30
2019-05-20T11:10:19.848Z,27.50
2019-05-20T11:12:47.409Z,24.50
2019-05-20T11:15:14.986Z,28.17
2019-05-20T11:17:42.532Z,33.03
2019-05-20T11:20:10.112Z,24.70
2019-05-20T11:22:38.669Z,26.97
2019-05-20T11:25:06.243Z,26.93
2019-05-20T11:27:33.788Z,26.70
2019-05-20T11:30:01.453Z,30.13
2019-05-20T11:32:29.003Z,27.60
2019-05-20T11:34:56.556Z,24.57
2019-05-20T11:37:24.124Z,25.63
2019-05-20T11:39:51.680Z,23.27
2019-05-20T11:42:19.243Z,25.83
2019-05-20T11:44:46.882Z,26.63
2019-05-20T11:47:14.415Z,23.63
2019-05-20T11:49:42.753Z,25.83
2019-05-20T11:52:10.296Z,25.07
2019-05-20T11:54:38.834Z,24.87
2019-05-20T11:57:06.384Z,25.63
2019-05-20T11:59:34.697Z,24.73
2019-05-20T12:02:04.021Z,25.83
2019-05-20T12:04:29.864Z,25.10
2019-05-20T12:06:57.433Z,25.00
2019-05-20T12:09:25.821Z,25.50
2019-05-20T12:11:53.359Z,23.83
2019-05-20T12:14:20.912Z,29.43
2019-05-20T12:16:48.483Z,23.60
2019-05-20T12:19:16.788Z,25.57
2019-05-20T12:21:44.367Z,27.50
2019-05-20T12:24:11.986Z,26.40
2019-05-20T12:26:39.540Z,30.70
2019-05-20T12:29:07.088Z,27.43
2019-05-20T12:31:34.660Z,31.80
2019-05-20T12:34:02.217Z,28.77
2019-05-20T12:36:29.767Z,31.07
2019-05-20T12:38:57.331Z,27.13
2019-05-20T12:41:25.334Z,41.20
2019-05-20T12:44:09.600Z,30.20
2019-05-20T12:46:20.440Z,29.37
2019-05-20T12:48:48.081Z,34.80
2019-05-20T12:51:15.628Z,32.90
2019-05-20T12:53:43.177Z,35.43
2019-05-20T12:56:10.759Z,33.40
2019-05-20T12:58:38.343Z,34.40
2019-05-20T13:01:05.961Z,34.70
2019-05-20T13:03:33.527Z,35.50
2019-05-20T13:06:01.072Z,35.97
2019-05-20T13:08:28.658Z,34.97
2019-05-20T13:10:56.291Z,34.10
2019-05-20T13:13:24.183Z,38.17
2019-05-20T13:15:51.747Z,37.87
2019-05-20T13:18:19.291Z,31.33
2019-05-20T13:20:46.867Z,34.20
2019-05-20T13:23:15.888Z,34.77
2019-05-20T13:25:42.066Z,38.60
2019-05-20T13:28:09.608Z,35.97
2019-05-20T13:30:37.162Z,39.57
2019-05-20T13:33:04.732Z,41.90
2019-05-20T13:35:32.276Z,36.20
2019-05-20T13:37:59.847Z,35.37
2019-05-20T13:40:42.972Z,31.50
2019-05-20T13:42:55.028Z,39.63
2019-05-20T13:45:22.580Z,36.30
2019-05-20T13:47:50.123Z,35.10
2019-05-20T13:50:18.480Z,34.40
2019-05-20T13:52:46.036Z,44.33
2019-05-20T13:55:13.623Z,38.17
2019-05-20T13:57:41.180Z,48.27
2019-05-20T14:00:08.778Z,40.10
2019-05-20T14:02:36.359Z,42.27
2019-05-20T14:05:03.920Z,42.93
2019-05-20T14:07:31.468Z,44.43
2019-05-20T14:09:59.037Z,47.07
2019-05-20T14:12:26.583Z,42.70
2019-05-20T14:14:54.160Z,42.97
2019-05-20T14:17:21.713Z,47.23
2019-05-20T14:19:49.289Z,45.93
2019-05-20T14:22:16.837Z,46.87
2019-05-20T14:24:44.420Z,49.27
2019-05-20T14:27:12.755Z,45.33
2019-05-20T14:29:40.353Z,53.60
2019-05-20T14:32:07.894Z,42.10
2019-05-20T14:34:35.461Z,50.83
2019-05-20T14:37:04.399Z,45.70
2019-05-20T14:39:31.974Z,49.83
2019-05-20T14:41:59.542Z,40.60
2019-05-20T14:44:27.083Z,32.07
2019-05-20T14:46:54.673Z,30.87
2019-05-20T14:49:23.003Z,29.13
2019-05-20T14:51:50.576Z,27.63
2019-05-20T14:54:18.127Z,29.33
2019-05-20T14:56:45.687Z,27.43
2019-05-20T14:59:13.248Z,27.43
2019-05-20T15:01:40.838Z,35.80
2019-05-20T15:04:09.152Z,36.27
2019-05-20T15:06:36.693Z,36.63
2019-05-20T15:09:04.275Z,35.50
2019-05-20T15:11:38.042Z,48.40
2019-05-20T15:14:00.712Z,44.73
2019-05-20T15:16:28.165Z,43.23
2019-05-20T15:18:55.760Z,45.57
2019-05-20T15:21:28.509Z,46.37
2019-05-20T15:23:51.071Z,47.80
2019-05-20T15:26:18.617Z,46.20
2019-05-20T15:28:47.176Z,53.37
2019-05-20T15:31:14.751Z,53.37
2019-05-20T15:33:42.323Z,63.30
2019-05-20T15:36:09.878Z,77.47
2019-05-20T15:38:37.455Z,56.17
2019-05-20T15:41:05.004Z,72.73
2019-05-20T15:43:32.572Z,69.40
2019-05-20T15:46:00.119Z,63.73
2019-05-20T15:48:27.707Z,71.00
2019-05-20T15:50:55.262Z,62.83
2019-05-20T15:53:22.832Z,67.23
2019-05-20T15:55:50.378Z,60.80
2019-05-20T15:58:18.993Z,72.10
2019-05-20T16:00:46.540Z,78.87
2019-05-20T16:03:15.124Z,71.47
2019-05-20T16:05:42.714Z,95.30
2019-05-20T16:08:10.289Z,72.80
2019-05-20T16:10:37.888Z,71.90
2019-05-20T16:13:05.459Z,76.53
2019-05-20T16:15:33.008Z,82.83
2019-05-20T16:18:00.584Z,84.93
2019-05-20T16:20:28.159Z,85.70
2019-05-20T16:22:55.724Z,96.67
2019-05-20T16:25:23.377Z,72.93
2019-05-20T16:27:51.036Z,75.33
2019-05-20T16:30:18.604Z,67.07
2019-05-20T16:32:46.168Z,68.07
2019-05-20T16:35:13.708Z,62.10
2019-05-20T16:37:41.277Z,65.57
2019-05-20T16:40:10.023Z,66.20
2019-05-20T16:42:38.205Z,54.07
2019-05-20T16:45:05.778Z,71.67
2019-05-20T16:47:33.317Z,61.03
2019-05-20T16:50:00.888Z,66.73
2019-05-20T16:52:28.428Z,56.53
2019-05-20T16:54:56.000Z,57.37
2019-05-20T16:57:23.872Z,58.83
2019-05-20T16:59:51.449Z,65.07
2019-05-20T17:02:18.991Z,55.30
2019-05-20T17:04:46.571Z,61.37
2019-05-20T17:07:14.112Z,70.03
2019-05-20T17:09:41.701Z,53.50
2019-05-20T17:12:09.252Z,48.23
2019-05-20T17:14:36.806Z,52.77
2019-05-20T17:17:04.378Z,53.43
2019-05-20T17:19:31.924Z,49.60
2019-05-20T17:22:00.504Z,59.87
2019-05-20T17:24:28.071Z,53.33
2019-05-20T17:26:55.613Z,46.77
2019-05-20T17:29:23.193Z,50.83
2019-05-20T17:31:50.773Z,44.40
2019-05-20T17:34:18.341Z,45.20
2019-05-20T17:36:45.928Z,41.73
2019-05-20T17:39:13.501Z,47.73
2019-05-20T17:41:41.071Z,48.50
2019-05-20T17:44:08.643Z,43.33
2019-05-20T17:46:36.958Z,44.60
2019-05-20T17:49:05.502Z,43.90
2019-05-20T17:51:33.069Z,42.93
2019-05-20T17:54:00.652Z,43.43
2019-05-20T17:56:28.200Z,36.00
2019-05-20T17:58:55.764Z,43.37
2019-05-20T18:01:23.343Z,43.50
2019-05-20T18:03:50.914Z,46.10
2019-05-20T18:06:18.463Z,41.00
2019-05-20T18:08:46.038Z,43.50
2019-05-20T18:11:13.624Z,41.70
2019-05-20T18:13:41.200Z,43.53
2019-05-20T18:16:08.743Z,42.67
2019-05-20T18:18:36.295Z,39.63
2019-05-20T18:21:03.868Z,35.00
2019-05-20T18:23:31.424Z,33.23
2019-05-20T18:25:59.007Z,36.50
2019-05-20T18:28:26.548Z,44.17
2019-05-20T18:30:54.116Z,35.27
2019-05-20T18:33:21.955Z,35.70
2019-05-20T18:35:49.523Z,36.10
2019-05-20T18:38:17.089Z,35.20
2019-05-20T18:40:44.674Z,29.07
2019-05-20T18:43:12.229Z,34.37
2019-05-20T18:45:39.808Z,33.80
2019-05-20T18:48:07.480Z,51.23
2019-05-20T18:50:35.047Z,33.13
2019-05-20T18:53:03.387Z,24.37
2019-05-20T18:55:34.310Z,36.57
2019-05-20T18:57:58.649Z,36.80
2019-05-20T19:00:26.191Z,33.70
2019-05-20T19:02:54.865Z,33.57
2019-05-20T19:05:22.429Z,35.27
2019-05-20T19:07:50.727Z,29.07
2019-05-20T19:10:18.283Z,33.97
2019-05-20T19:12:45.859Z,34.30
2019-05-20T19:15:13.743Z,35.13
2019-05-20T19:17:41.288Z,30.43
2019-05-20T19:20:08.869Z,31.13
2019-05-20T19:22:37.464Z,33.07
2019-05-20T19:25:06.730Z,30.03
2019-05-20T19:27:32.724Z,35.00
2019-05-20T19:30:00.302Z,34.73
2019-05-20T19:32:28.058Z,37.50
2019-05-20T19:34:55.624Z,53.83
2019-05-20T19:37:23.195Z,42.20
2019-05-20T19:39:50.798Z,26.40
2019-05-20T19:42:18.450Z,24.00
2019-05-20T19:44:46.028Z,21.70
2019-05-20T19:47:13.676Z,19.73
2019-05-20T19:49:42.720Z,25.13
2019-05-20T19:52:09.596Z,21.30
2019-05-20T19:54:37.140Z,19.13
2019-05-20T19:57:04.720Z,21.80
2019-05-20T19:59:33.029Z,22.97
2019-05-20T20:02:00.576Z,22.80
2019-05-20T20:04:28.135Z,20.23
2019-05-20T20:06:55.704Z,20.07
2019-05-20T20:09:24.260Z,19.27
2019-05-20T20:11:51.799Z,16.80
2019-05-20T20:14:20.315Z,22.50
2019-05-20T20:16:47.888Z,22.90
2019-05-20T20:19:15.456Z,50.10
2019-05-20T20:21:43.006Z,36.50
2019-05-20T20:24:10.573Z,21.37
2019-05-20T20:26:38.159Z,23.00
2019-05-20T20:29:05.699Z,26.17
2019-05-20T20:31:33.267Z,22.97
2019-05-20T20:34:00.808Z,33.70
2019-05-20T20:36:28.364Z,29.27
2019-05-20T20:38:55.933Z,34.30
2019-05-20T20:41:23.476Z,28.37
2019-05-20T20:43:51.046Z,27.20
2019-05-20T20:46:18.594Z,34.60
2019-05-20T20:48:46.160Z,46.60
2019-05-20T20:51:13.708Z,37.20
2019-05-20T20:53:41.266Z,27.60
2019-05-20T20:56:22.700Z,37.33
2019-05-20T20:58:37.192Z,26.07
2019-05-20T21:01:04.761Z,25.60
2019-05-20T21:03:32.328Z,28.10
2019-05-20T21:05:59.872Z,26.23
2019-05-20T21:08:27.440Z,26.63
2019-05-20T21:10:55.017Z,27.07
2019-05-20T21:13:22.586Z,27.50
2019-05-20T21:15:50.900Z,25.43
2019-05-20T21:18:18.471Z,29.60
2019-05-20T21:20:46.010Z,26.43
2019-05-20T21:23:13.574Z,31.23
2019-05-20T21:25:41.120Z,19.63
2019-05-20T21:28:08.691Z,23.33
2019-05-20T21:30:36.232Z,21.83
2019-05-20T21:33:09.177Z,22.23
2019-05-20T21:35:31.383Z,23.43
2019-05-20T21:37:58.947Z,19.60
2019-05-20T21:40:26.487Z,17.40
2019-05-20T21:42:54.034Z,18.93
2019-05-20T21:45:21.607Z,26.30
2019-05-20T21:47:49.160Z,24.53
2019-05-20T21:50:16.731Z,21.20
2019-05-20T21:52:44.286Z,19.17
2019-05-20T21:55:11.859Z,21.07
2019-05-20T21:57:39.877Z,16.40
2019-05-20T22:00:07.442Z,19.40
2019-05-20T22:02:35.014Z,28.43
2019-05-20T22:05:02.562Z,24.60
2019-05-20T22:07:31.390Z,21.53
2019-05-20T22:09:58.827Z,19.50
2019-05-20T22:12:26.395Z,17.43
2019-05-20T22:14:53.957Z,20.33
2019-05-20T22:17:21.516Z,18.33
2019-05-20T22:19:49.083Z,19.57
2019-05-20T22:22:18.256Z,19.93
2019-05-20T22:24:45.820Z,22.70
2019-05-20T22:27:13.364Z,19.87
2019-05-20T22:29:40.925Z,15.80
2019-05-20T22:32:11.377Z,26.20
2019-05-20T22:34:52.466Z,19.93
2019-05-20T22:37:12.837Z,17.60
2019-05-20T22:39:40.415Z,15.97
2019-05-20T22:42:07.955Z,19.17
2019-05-20T22:44:35.519Z,18.70
2019-05-20T22:47:03.055Z,14.10
2019-05-20T22:49:30.624Z,24.40
2019-05-20T22:51:58.166Z,24.07
2019-05-20T22:54:25.743Z,21.00
2019-05-20T22:56:54.081Z,37.37
2019-05-20T22:59:21.643Z,32.70
2019-05-20T23:01:49.189Z,39.37
2019-05-20T23:04:28.297Z,29.40
2019-05-20T23:06:55.872Z,29.33
2019-05-20T23:09:23.437Z,36.57
2019-05-20T23:11:50.979Z,36.23
2019-05-20T23:14:18.549Z,36.50
2019-05-20T23:16:46.103Z,32.40
2019-05-20T23:19:13.671Z,27.70
2019-05-20T23:21:41.233Z,27.67
2019-05-20T23:24:08.804Z,23.13
2019-05-20T23:26:36.349Z,29.93
2019-05-20T23:29:03.951Z,19.30
2019-05-20T23:31:31.495Z,22.83
2019-05-20T23:34:11.831Z,30.77
2019-05-20T23:36:26.667Z,17.87
2019-05-20T23:38:54.230Z,21.43
2019-05-20T23:41:21.832Z,14.57
2019-05-20T23:43:50.163Z,13.50
2019-05-20T23:46:17.709Z,13.43
2019-05-20T23:48:46.232Z,12.43
2019-05-20T23:51:13.803Z,10.43
2019-05-20T23:53:41.368Z,15.67
2019-05-20T23:56:08.918Z,43.83
2019-05-20T23:58:36.484Z,20.73
